Camp Crook, South Dakota
Current Conditions -  °F | °C
As of 8:51 PM on Monday 20 Oct 2014 (Local Time) from KBHK Reporting Station
Clear Clear  
Wind Chill: 50°   Ceiling: Unl
Heat Index: 50°   Visibility: 10mi
Dew Point: 41°   Wind: 8mph
Humidity: 71%   Direction: 120°ESE
Pressure: 29.86"   Gusts: NA
Location:  45.55°N, 103.97°W
Report Text: KBHK 210251Z AUTO 12007KT 10SM CLR 10/05 A2986 RMK AO2 SLP111 T01000050 58006
Loading
Personal Weather Stations






























Interactive Weather Map
Tropical Storm Tracking
New forecast layout! Learn more

10-Day Weather Forecast

Advertisements
Track Severe Weather on mobile